createdAt,value
2022-08-05T00:01:28.522Z,6.28
2022-08-05T00:03:57.153Z,3.15
2022-08-05T00:06:32.312Z,8.00
2022-08-05T00:09:01.064Z,3.30
2022-08-05T00:11:30.508Z,5.88
2022-08-05T00:14:17.017Z,6.22
2022-08-05T00:16:52.561Z,5.03
2022-08-05T00:19:22.680Z,3.58
2022-08-05T00:21:50.256Z,7.03
2022-08-05T00:24:19.124Z,7.32
2022-08-05T00:26:52.923Z,3.97
2022-08-05T00:29:25.720Z,4.57
2022-08-05T00:32:10.920Z,3.88
2022-08-05T00:35:04.465Z,3.78
2022-08-05T00:37:50.856Z,4.07
2022-08-05T00:40:17.885Z,6.90
2022-08-05T00:42:54.868Z,5.70
2022-08-05T00:45:28.239Z,9.43
2022-08-05T00:48:07.412Z,4.55
2022-08-05T00:50:34.629Z,6.72
2022-08-05T00:53:02.599Z,5.03
2022-08-05T00:55:42.428Z,9.88
2022-08-05T00:58:16.879Z,3.88
2022-08-05T01:00:48.026Z,6.18
2022-08-05T01:03:22.654Z,3.58
2022-08-05T01:05:51.398Z,8.00
2022-08-05T01:08:40.620Z,4.53
2022-08-05T01:11:22.567Z,8.05
2022-08-05T01:14:28.273Z,8.52
2022-08-05T01:17:08.275Z,4.30
2022-08-05T01:20:03.810Z,4.40
2022-08-05T01:23:15.179Z,3.65
2022-08-05T01:26:18.687Z,6.82
2022-08-05T01:29:05.032Z,12.80
2022-08-05T01:31:49.626Z,12.02
2022-08-05T01:34:37.560Z,5.85
2022-08-05T01:37:11.081Z,5.20
2022-08-05T01:39:54.816Z,6.60
2022-08-05T01:42:27.624Z,7.95
2022-08-05T01:44:56.512Z,9.00
2022-08-05T01:47:38.763Z,6.20
2022-08-05T01:50:15.707Z,10.07
2022-08-05T01:52:49.774Z,8.18
2022-08-05T01:55:20.418Z,8.15
2022-08-05T01:58:29.094Z,5.93
2022-08-05T02:00:39.473Z,7.90
2022-08-05T02:03:32.020Z,8.40
2022-08-05T02:06:23.952Z,9.80
2022-08-05T02:08:57.800Z,7.75
2022-08-05T02:11:33.436Z,10.95
2022-08-05T02:14:13.026Z,8.27
2022-08-05T02:16:52.294Z,13.23
2022-08-05T02:19:28.971Z,8.07
2022-08-05T02:22:27.278Z,14.00
2022-08-05T02:25:08.513Z,8.70
2022-08-05T02:27:59.497Z,11.23
2022-08-05T02:30:35.160Z,11.00
2022-08-05T02:33:03.384Z,7.25
2022-08-05T02:35:38.110Z,9.32
2022-08-05T02:38:19.462Z,14.18
2022-08-05T02:40:47.001Z,12.85
2022-08-05T02:43:16.658Z,9.90
2022-08-05T02:45:51.558Z,12.00
2022-08-05T02:48:22.331Z,10.98
2022-08-05T02:51:03.239Z,15.30
2022-08-05T02:53:39.512Z,14.90
2022-08-05T02:58:37.243Z,15.55
2022-08-05T03:01:16.880Z,14.07
2022-08-05T03:04:03.277Z,16.17
2022-08-05T03:06:55.443Z,16.83
2022-08-05T03:09:27.103Z,21.38
2022-08-05T03:12:04.651Z,15.65
2022-08-05T03:14:31.361Z,17.20
2022-08-05T03:16:59.141Z,22.08
2022-08-05T03:19:34.245Z,15.07
2022-08-05T03:22:05.004Z,17.02
2022-08-05T03:24:47.319Z,29.40
2022-08-05T03:27:19.332Z,17.77
2022-08-05T03:30:08.388Z,19.08
2022-08-05T03:32:33.507Z,18.48
2022-08-05T03:35:00.755Z,16.02
2022-08-05T03:37:27.711Z,18.83
2022-08-05T03:40:01.617Z,18.65
2022-08-05T03:42:32.352Z,14.77
2022-08-05T03:45:01.600Z,16.40
2022-08-05T03:47:47.520Z,18.48
2022-08-05T03:50:16.074Z,14.43
2022-08-05T03:55:34.662Z,15.70
2022-08-05T03:56:06.286Z,17.33
2022-08-05T03:58:30.986Z,23.60
2022-08-05T04:01:01.415Z,17.95
2022-08-05T04:03:35.895Z,23.13
2022-08-05T04:06:06.650Z,20.23
2022-08-05T04:08:37.118Z,24.95
2022-08-05T04:11:08.401Z,20.58
2022-08-05T04:13:50.647Z,28.17
2022-08-05T04:16:24.197Z,22.23
2022-08-05T04:18:54.854Z,19.67
2022-08-05T04:22:08.894Z,17.45
2022-08-05T04:24:18.877Z,20.30
2022-08-05T04:26:46.772Z,16.67
2022-08-05T04:29:13.487Z,21.17
2022-08-05T04:31:41.370Z,23.80
2022-08-05T04:34:31.450Z,36.55
2022-08-05T04:36:56.558Z,24.55
2022-08-05T04:39:23.381Z,24.73
2022-08-05T04:44:21.134Z,30.55
2022-08-05T04:46:55.737Z,22.95
2022-08-05T04:49:24.836Z,19.60
2022-08-05T04:52:07.658Z,31.30
2022-08-05T04:54:34.570Z,28.15
2022-08-05T04:57:01.489Z,23.85
2022-08-05T04:59:38.777Z,25.13
2022-08-05T05:02:36.304Z,24.52
2022-08-05T05:05:02.753Z,35.97
2022-08-05T05:07:32.134Z,30.98
2022-08-05T05:10:02.222Z,25.52
2022-08-05T05:12:30.626Z,31.10
2022-08-05T05:14:57.459Z,26.02
2022-08-05T05:17:55.949Z,22.08
2022-08-05T05:20:13.428Z,27.25
2022-08-05T05:22:41.346Z,29.45
2022-08-05T05:25:16.117Z,33.30
2022-08-05T05:27:53.804Z,24.50
2022-08-05T05:30:30.854Z,26.65
2022-08-05T05:33:08.783Z,36.67
2022-08-05T05:35:44.616Z,35.92
2022-08-05T05:38:13.332Z,40.28
2022-08-05T05:40:48.358Z,30.25
2022-08-05T05:46:07.640Z,38.83
2022-08-05T05:48:44.531Z,37.50
2022-08-05T05:51:15.742Z,41.58
2022-08-05T05:53:54.559Z,37.95
2022-08-05T05:56:32.984Z,33.35
2022-08-05T05:59:06.415Z,35.10
2022-08-05T06:01:39.649Z,43.78
2022-08-05T06:04:12.702Z,37.13
2022-08-05T06:06:42.666Z,31.92
2022-08-05T06:09:18.062Z,37.45
2022-08-05T06:12:02.080Z,40.75
2022-08-05T06:14:34.748Z,37.47
2022-08-05T06:17:21.991Z,41.88
2022-08-05T06:19:56.896Z,34.08
2022-08-05T06:22:28.978Z,35.10
2022-08-05T06:24:55.783Z,38.53
2022-08-05T06:28:11.408Z,32.00
2022-08-05T06:30:19.949Z,44.92
2022-08-05T06:32:48.367Z,36.97
2022-08-05T06:36:01.992Z,44.38
2022-08-05T06:40:42.108Z,45.63
2022-08-05T06:43:59.421Z,45.63
2022-08-05T06:46:03.723Z,39.88
2022-08-05T06:48:47.244Z,38.10
2022-08-05T06:51:29.013Z,47.38
2022-08-05T06:53:58.716Z,54.25
2022-08-05T06:56:26.393Z,46.65
2022-08-05T06:58:54.385Z,42.75
2022-08-05T07:03:49.779Z,46.75
2022-08-05T07:06:17.347Z,52.90
2022-08-05T07:08:54.705Z,43.35
2022-08-05T07:11:25.185Z,41.50
2022-08-05T07:14:20.064Z,49.83
2022-08-05T07:18:00.013Z,46.92
2022-08-05T07:22:28.520Z,56.28
2022-08-05T07:24:59.191Z,56.67
2022-08-05T07:27:27.279Z,55.05
2022-08-05T07:30:24.331Z,56.80
2022-08-05T07:32:43.934Z,48.85
2022-08-05T07:36:04.657Z,58.65
2022-08-05T07:37:59.744Z,53.38
2022-08-05T07:40:32.609Z,42.22
2022-08-05T07:42:59.888Z,47.00
2022-08-05T07:45:57.825Z,50.92
2022-08-05T07:49:00.657Z,51.90
2022-08-05T07:51:08.597Z,50.55
2022-08-05T07:53:51.662Z,55.03
2022-08-05T07:56:59.841Z,52.65
2022-08-05T08:01:35.588Z,45.60
2022-08-05T08:04:34.355Z,47.08
2022-08-05T08:07:05.484Z,51.40
2022-08-05T08:09:33.848Z,48.30
2022-08-05T08:12:09.071Z,37.55
2022-08-05T08:14:38.180Z,47.88
2022-08-05T08:17:16.077Z,42.00
2022-08-05T08:20:22.727Z,45.20
2022-08-05T08:22:32.391Z,48.40
2022-08-05T08:25:03.366Z,49.47
2022-08-05T08:27:40.138Z,50.97
2022-08-05T08:30:19.627Z,36.10
2022-08-05T08:33:02.723Z,46.30
2022-08-05T08:35:34.771Z,53.55
2022-08-05T08:38:02.094Z,41.55
2022-08-05T08:40:30.026Z,33.97
2022-08-05T08:42:58.524Z,35.00
2022-08-05T08:45:46.699Z,26.83
2022-08-05T08:48:41.317Z,32.15
2022-08-05T08:51:30.683Z,21.63
2022-08-05T08:53:52.297Z,23.00
2022-08-05T08:56:23.465Z,31.52
2022-08-05T08:58:54.713Z,21.60
2022-08-05T09:01:21.777Z,29.45
2022-08-05T09:03:55.416Z,28.25
2022-08-05T09:06:29.501Z,21.25
2022-08-05T09:08:58.808Z,24.45
2022-08-05T09:11:53.180Z,24.85
2022-08-05T09:17:05.301Z,19.50
2022-08-05T09:20:01.691Z,23.90
2022-08-05T09:22:32.126Z,22.48
2022-08-05T09:25:13.944Z,19.45
2022-08-05T09:28:05.220Z,19.40
2022-08-05T09:30:34.750Z,20.00
2022-08-05T09:33:02.423Z,27.05
2022-08-05T09:35:31.541Z,16.27
2022-08-05T09:38:16.199Z,23.95
2022-08-05T09:40:52.413Z,20.63
2022-08-05T09:43:40.560Z,21.45
2022-08-05T09:46:27.473Z,14.23
2022-08-05T09:49:08.239Z,29.37
2022-08-05T09:51:48.967Z,22.65
2022-08-05T09:54:29.568Z,27.60
2022-08-05T09:56:57.673Z,33.92
2022-08-05T09:59:28.312Z,23.08
2022-08-05T10:01:57.928Z,30.23
2022-08-05T10:04:36.232Z,18.60
2022-08-05T10:07:19.998Z,21.55
2022-08-05T10:10:14.042Z,20.52
2022-08-05T10:12:57.011Z,17.35
2022-08-05T10:15:34.135Z,12.63
2022-08-05T10:18:16.679Z,16.13
2022-08-05T10:20:52.917Z,13.65
2022-08-05T10:23:55.450Z,20.05
2022-08-05T10:26:15.057Z,15.07
2022-08-05T10:28:46.684Z,13.20
2022-08-05T10:32:50.684Z,21.27
2022-08-05T10:34:03.616Z,14.35
2022-08-05T10:36:30.891Z,17.30
2022-08-05T10:39:05.273Z,17.55
2022-08-05T10:42:07.853Z,12.50
2022-08-05T10:44:39.254Z,13.50
2022-08-05T10:47:26.168Z,16.73
2022-08-05T10:50:32.863Z,16.85
2022-08-05T10:53:01.163Z,15.60
2022-08-05T10:55:38.447Z,15.55
2022-08-05T10:58:17.964Z,22.13
2022-08-05T11:00:48.426Z,11.00
2022-08-05T11:06:15.579Z,16.17
2022-08-05T11:09:45.540Z,16.27
2022-08-05T11:12:41.972Z,15.15
2022-08-05T11:15:20.755Z,9.95
2022-08-05T11:18:00.451Z,13.20
2022-08-05T11:20:44.016Z,9.52
2022-08-05T11:23:49.853Z,13.60
2022-08-05T11:26:28.171Z,9.05
2022-08-05T11:29:05.195Z,12.30
2022-08-05T11:31:56.608Z,14.75
2022-08-05T11:34:51.575Z,13.48
2022-08-05T11:38:30.350Z,7.78
2022-08-05T11:41:34.444Z,9.05
2022-08-05T11:44:12.902Z,10.88
2022-08-05T11:47:11.132Z,18.50
2022-08-05T11:49:49.775Z,12.95
2022-08-05T11:52:29.171Z,13.00
2022-08-05T11:54:58.721Z,12.02
2022-08-05T11:58:08.639Z,10.02
2022-08-05T12:00:30.341Z,12.65
2022-08-05T12:02:57.777Z,13.10
2022-08-05T12:05:32.480Z,11.85
2022-08-05T12:08:09.731Z,16.80
2022-08-05T12:10:45.412Z,8.35
2022-08-05T12:13:27.713Z,7.20
2022-08-05T12:16:14.607Z,11.63
2022-08-05T12:18:52.186Z,4.85
2022-08-05T12:21:29.648Z,10.35
2022-08-05T12:24:07.079Z,5.93
2022-08-05T12:29:09.327Z,8.52
2022-08-05T12:31:49.738Z,5.45
2022-08-05T12:34:29.183Z,6.40
2022-08-05T12:36:58.533Z,11.20
2022-08-05T12:39:34.342Z,10.57
2022-08-05T12:42:20.469Z,9.48
2022-08-05T12:44:47.853Z,6.72
2022-08-05T12:47:28.831Z,5.72
2022-08-05T12:50:03.969Z,9.15
2022-08-05T12:52:39.132Z,11.27
2022-08-05T12:55:25.843Z,10.23
2022-08-05T12:58:38.184Z,8.20
2022-08-05T13:02:04.064Z,5.25
2022-08-05T13:03:38.888Z,8.23
2022-08-05T13:06:11.867Z,9.90
2022-08-05T13:08:39.196Z,9.85
2022-08-05T13:11:07.875Z,6.68
2022-08-05T13:14:06.685Z,6.70
2022-08-05T13:16:27.798Z,5.10
2022-08-05T13:18:57.695Z,4.00
2022-08-05T13:21:28.238Z,3.53
2022-08-05T13:24:08.733Z,3.22
2022-08-05T13:26:36.082Z,9.20
2022-08-05T13:29:03.003Z,6.93
2022-08-05T13:32:02.903Z,8.70
2022-08-05T13:34:23.364Z,6.70
2022-08-05T13:36:53.197Z,7.15
2022-08-05T13:40:13.838Z,6.97
2022-08-05T13:42:07.693Z,6.40
2022-08-05T13:44:45.413Z,6.53
2022-08-05T13:47:28.116Z,9.93
2022-08-05T13:50:04.379Z,11.88
2022-08-05T13:52:35.493Z,6.05
2022-08-05T13:55:07.614Z,4.82
2022-08-05T13:57:50.718Z,4.43
2022-08-05T14:00:27.745Z,5.38
2022-08-05T14:02:56.615Z,5.43
2022-08-05T14:05:48.011Z,6.13
2022-08-05T14:08:20.143Z,10.68
2022-08-05T14:10:48.603Z,10.13
2022-08-05T14:13:15.703Z,7.20
2022-08-05T14:16:06.890Z,7.82
2022-08-05T14:18:29.545Z,7.57
2022-08-05T14:20:56.229Z,5.85
2022-08-05T14:23:26.038Z,8.60
2022-08-05T14:25:58.921Z,6.72
2022-08-05T14:28:30.651Z,4.35
2022-08-05T14:31:01.543Z,9.20
2022-08-05T14:33:32.632Z,10.52
2022-08-05T14:36:16.018Z,3.38
2022-08-05T14:38:49.575Z,8.10
2022-08-05T14:41:17.720Z,5.75
2022-08-05T14:43:57.673Z,4.47
2022-08-05T14:46:30.691Z,4.70
2022-08-05T14:49:06.483Z,6.15
2022-08-05T14:51:33.947Z,4.53
2022-08-05T14:54:28.503Z,3.47
2022-08-05T14:56:47.449Z,1.77
2022-08-05T14:59:15.290Z,3.13
2022-08-05T15:01:48.183Z,4.95
2022-08-05T15:04:17.211Z,3.85
2022-08-05T15:06:49.070Z,3.33
2022-08-05T15:09:52.587Z,4.78
2022-08-05T15:12:06.045Z,4.20
2022-08-05T15:14:34.436Z,7.82
2022-08-05T15:17:05.347Z,5.38
2022-08-05T15:19:37.346Z,3.60
2022-08-05T15:22:05.869Z,3.35
2022-08-05T15:24:32.851Z,3.45
2022-08-05T15:26:59.698Z,4.90
2022-08-05T15:29:29.890Z,3.90
2022-08-05T15:32:03.122Z,3.10
2022-08-05T15:34:32.180Z,7.82
2022-08-05T15:37:06.275Z,2.15
2022-08-05T15:40:58.277Z,3.40
2022-08-05T15:42:54.137Z,2.42
2022-08-05T15:45:09.755Z,2.33
2022-08-05T15:47:40.014Z,5.45
2022-08-05T15:50:08.051Z,1.63
2022-08-05T15:52:52.694Z,2.22
2022-08-05T15:55:25.113Z,1.15
2022-08-05T15:58:08.237Z,1.73
2022-08-05T16:00:50.921Z,2.47
2022-08-05T16:05:52.614Z,1.55
2022-08-05T16:08:22.582Z,1.73
2022-08-05T16:10:57.630Z,4.32
2022-08-05T16:13:34.291Z,3.78
2022-08-05T16:16:05.135Z,3.38
2022-08-05T16:18:35.086Z,2.60
2022-08-05T16:21:19.085Z,2.30
2022-08-05T16:23:54.062Z,1.25
2022-08-05T16:26:26.610Z,3.72
2022-08-05T16:28:54.612Z,1.13
2022-08-05T16:31:21.980Z,3.40
2022-08-05T16:33:49.267Z,2.47
2022-08-05T16:36:20.535Z,1.00
2022-08-05T16:38:54.827Z,5.75
2022-08-05T16:42:14.139Z,1.48
2022-08-05T16:44:14.745Z,5.00
2022-08-05T16:46:56.036Z,2.92
2022-08-05T16:49:23.623Z,3.40
2022-08-05T16:51:51.385Z,0.93
2022-08-05T16:54:30.324Z,1.85
2022-08-05T16:57:00.135Z,3.10
2022-08-05T16:59:30.778Z,4.00
2022-08-05T17:01:57.857Z,1.58
2022-08-05T17:04:28.130Z,2.17
2022-08-05T17:07:00.010Z,1.90
2022-08-05T17:09:29.535Z,1.20
2022-08-05T17:11:59.717Z,1.95
2022-08-05T17:14:37.386Z,2.92
2022-08-05T17:17:14.229Z,1.67
2022-08-05T17:22:24.806Z,2.22
2022-08-05T17:24:58.095Z,1.88
2022-08-05T17:27:33.492Z,1.27
2022-08-05T17:30:02.409Z,6.18
2022-08-05T17:32:29.798Z,5.05
2022-08-05T17:37:39.303Z,1.08
2022-08-05T17:40:12.449Z,1.50
2022-08-05T17:42:41.802Z,2.90
2022-08-05T17:45:24.667Z,0.98
2022-08-05T17:47:55.364Z,1.23
2022-08-05T17:50:30.001Z,5.32
2022-08-05T17:53:04.690Z,1.10
2022-08-05T17:55:38.148Z,1.73
2022-08-05T17:58:09.704Z,2.47
2022-08-05T18:00:44.241Z,0.98
2022-08-05T18:03:11.944Z,2.40
2022-08-05T18:05:53.390Z,2.45
2022-08-05T18:08:20.971Z,3.35
2022-08-05T18:10:47.766Z,3.42
2022-08-05T18:13:15.442Z,1.88
2022-08-05T18:18:11.640Z,1.73
2022-08-05T18:20:38.760Z,1.13
2022-08-05T18:23:09.204Z,1.38
2022-08-05T18:25:45.269Z,1.15
2022-08-05T18:28:16.655Z,1.05
2022-08-05T18:30:54.659Z,1.48
2022-08-05T18:33:24.794Z,0.98
2022-08-05T18:36:04.326Z,7.97
2022-08-05T18:38:37.197Z,8.85
2022-08-05T18:41:53.444Z,4.68
2022-08-05T18:43:55.056Z,1.52
2022-08-05T18:46:25.894Z,6.25
2022-08-05T18:48:56.243Z,2.75
2022-08-05T18:52:05.982Z,2.10
2022-08-05T18:54:32.623Z,1.27
2022-08-05T18:57:02.422Z,1.63
2022-08-05T18:59:42.940Z,5.53
2022-08-05T19:02:28.114Z,5.32
2022-08-05T19:05:02.965Z,2.78
2022-08-05T19:07:50.713Z,2.10
2022-08-05T19:10:28.027Z,3.83
2022-08-05T19:12:56.361Z,3.85
2022-08-05T19:15:56.948Z,2.97
2022-08-05T19:18:13.485Z,1.95
2022-08-05T19:23:22.564Z,5.82
2022-08-05T19:26:02.940Z,0.77
2022-08-05T19:28:32.811Z,1.45
2022-08-05T19:31:00.218Z,0.60
2022-08-05T19:33:35.245Z,2.78
2022-08-05T19:36:06.157Z,1.33
2022-08-05T19:38:37.161Z,3.58
2022-08-05T19:41:09.030Z,7.40
2022-08-05T19:44:05.347Z,3.00
2022-08-05T19:46:30.191Z,3.85
2022-08-05T19:49:05.347Z,2.60
2022-08-05T19:52:04.863Z,1.63
2022-08-05T19:54:25.387Z,1.95
2022-08-05T19:57:02.660Z,2.83
2022-08-05T20:00:00.975Z,3.17
2022-08-05T20:04:48.443Z,3.17
2022-08-05T20:07:15.841Z,2.60
2022-08-05T20:12:39.955Z,1.60
2022-08-05T20:15:22.950Z,1.60
2022-08-05T20:18:04.447Z,3.45
2022-08-05T20:20:38.765Z,5.85
2022-08-05T20:23:05.553Z,3.10
2022-08-05T20:25:39.695Z,1.48
2022-08-05T20:28:14.679Z,5.13
2022-08-05T20:30:41.668Z,0.82
2022-08-05T20:33:08.899Z,3.85
2022-08-05T20:35:40.601Z,2.60
2022-08-05T20:38:14.394Z,2.65
2022-08-05T20:40:55.528Z,3.47
2022-08-05T20:43:39.814Z,2.60
2022-08-05T20:46:24.836Z,4.35
2022-08-05T20:48:52.251Z,2.58
2022-08-05T20:51:19.159Z,1.90
2022-08-05T20:53:56.495Z,2.78
2022-08-05T20:56:40.104Z,4.70
2022-08-05T20:59:14.197Z,3.50
2022-08-05T21:01:47.412Z,4.28
2022-08-05T21:04:15.441Z,2.80
2022-08-05T21:06:45.601Z,3.22
2022-08-05T21:09:15.879Z,4.03
2022-08-05T21:12:07.758Z,2.53
2022-08-05T21:14:34.800Z,2.00
2022-08-05T21:17:06.313Z,1.08
2022-08-05T21:19:46.881Z,1.88
2022-08-05T21:22:17.719Z,3.42
2022-08-05T21:24:49.037Z,1.65
2022-08-05T21:27:20.614Z,3.05
2022-08-05T21:29:54.123Z,2.72
2022-08-05T21:32:27.526Z,1.40
2022-08-05T21:35:17.458Z,3.67
2022-08-05T21:37:52.627Z,2.10
2022-08-05T21:40:24.967Z,2.20
2022-08-05T21:42:52.994Z,4.68
2022-08-05T21:45:24.556Z,8.35
2022-08-05T21:47:56.924Z,0.85
2022-08-05T21:50:27.935Z,7.55
2022-08-05T21:52:59.040Z,2.35
2022-08-05T21:56:01.457Z,4.97
2022-08-05T22:00:51.365Z,2.35
2022-08-05T22:03:48.223Z,4.30
2022-08-05T22:06:06.263Z,2.67
2022-08-05T22:08:37.779Z,2.90
2022-08-05T22:11:11.910Z,5.22
2022-08-05T22:14:33.491Z,3.15
2022-08-05T22:16:42.137Z,2.05
2022-08-05T22:20:01.265Z,4.72
2022-08-05T22:22:03.426Z,3.88
2022-08-05T22:24:53.457Z,1.17
2022-08-05T22:28:08.571Z,3.63
2022-08-05T22:30:34.889Z,5.97
2022-08-05T22:33:02.690Z,2.05
2022-08-05T22:35:38.705Z,5.85
2022-08-05T22:38:15.865Z,4.60
2022-08-05T22:40:49.913Z,0.77
2022-08-05T22:43:36.294Z,2.30
2022-08-05T22:46:12.081Z,2.17
2022-08-05T22:48:50.343Z,4.47
2022-08-05T22:51:22.683Z,3.75
2022-08-05T22:53:56.688Z,3.17
2022-08-05T22:56:30.010Z,2.35
2022-08-05T22:59:04.170Z,2.97
2022-08-05T23:02:05.063Z,1.50
2022-08-05T23:04:33.666Z,5.57
2022-08-05T23:07:00.655Z,1.23
2022-08-05T23:09:57.728Z,5.38
2022-08-05T23:12:16.157Z,1.73
2022-08-05T23:14:43.797Z,5.32
2022-08-05T23:17:34.542Z,3.17
2022-08-05T23:20:16.358Z,3.28
2022-08-05T23:22:47.156Z,3.17
2022-08-05T23:25:50.065Z,2.50
2022-08-05T23:28:03.333Z,1.92
2022-08-05T23:30:40.464Z,2.00
2022-08-05T23:33:16.300Z,1.90
2022-08-05T23:35:55.182Z,2.33
2022-08-05T23:38:23.403Z,2.10
2022-08-05T23:40:52.458Z,9.75
2022-08-05T23:43:25.536Z,8.63
2022-08-05T23:46:20.649Z,10.07
2022-08-05T23:49:00.236Z,3.72
2022-08-05T23:51:54.875Z,8.02
2022-08-05T23:54:30.467Z,3.67
2022-08-05T23:57:03.346Z,5.05
